Zahl, North Dakota
Current Conditions -  °F | °C
As of 5:52 PM on Thursday 18 Dec 2014 (Local Time) from KISN Reporting Station
Overcast Overcast  
Wind Chill: 21°   Ceiling: 600
Heat Index: 28°   Visibility: 10mi
Dew Point: 25°   Wind: 7mph
Humidity: 88%   Direction: 190°S
Pressure: 29.95"   Gusts: NA
Location:  48.57°N, 103.69°W
Report Text: KISN 182352Z AUTO 19006KT 10SM OVC006 M02/M04 A2995 RMK AO2 SLP172 T10221039 11022 21044 53000
Loading
Personal Weather Stations






























Interactive Weather Map New forecast layout! Learn more

10-Day Weather Forecast

Advertisements
Track Severe Weather on mobile